sensor_id;sensor_type;location;lat;lon;timestamp;pressure;altitude;pressure_sealevel;temperature;humidity
45327;BME280;31062;49.678;24.560;2023-02-20T00:00:35;98079.94;;;0.70;73.89
45327;BME280;31062;49.678;24.560;2023-02-20T00:03:21;98084.59;;;0.75;74.04
45327;BME280;31062;49.678;24.560;2023-02-20T00:06:06;98224.19;;;1.76;73.83
45327;BME280;31062;49.678;24.560;2023-02-20T00:08:52;98041.81;;;0.40;73.50
45327;BME280;31062;49.678;24.560;2023-02-20T00:11:38;98083.69;;;0.67;73.16
45327;BME280;31062;49.678;24.560;2023-02-20T00:14:23;98044.81;;;0.36;73.60
45327;BME280;31062;49.678;24.560;2023-02-20T00:17:09;98182.69;;;1.35;73.24
45327;BME280;31062;49.678;24.560;2023-02-20T00:19:54;98211.38;;;1.47;73.65
45327;BME280;31062;49.678;24.560;2023-02-20T00:22:40;98227.19;;;1.54;73.66
45327;BME280;31062;49.678;24.560;2023-02-20T00:25:25;98225.53;;;1.45;73.74
45327;BME280;31062;49.678;24.560;2023-02-20T00:28:10;98094.94;;;0.58;73.24
45327;BME280;31062;49.678;24.560;2023-02-20T00:30:56;98285.25;;;1.60;73.42
45327;BME280;31062;49.678;24.560;2023-02-20T00:33:42;98057.75;;;0.30;73.26
45327;BME280;31062;49.678;24.560;2023-02-20T00:36:27;98057.00;;;0.30;72.88
45327;BME280;31062;49.678;24.560;2023-02-20T00:39:13;98070.16;;;0.31;73.24
45327;BME280;31062;49.678;24.560;2023-02-20T00:41:59;98254.78;;;1.50;73.34
45327;BME280;31062;49.678;24.560;2023-02-20T00:44:45;98233.91;;;1.29;73.10
45327;BME280;31062;49.678;24.560;2023-02-20T00:47:30;98102.19;;;0.50;73.53
45327;BME280;31062;49.678;24.560;2023-02-20T00:50:16;98141.53;;;0.60;73.38
45327;BME280;31062;49.678;24.560;2023-02-20T00:53:02;98092.88;;;0.39;73.11
45327;BME280;31062;49.678;24.560;2023-02-20T00:55:48;98027.53;;;0.04;72.63
45327;BME280;31062;49.678;24.560;2023-02-20T00:58:33;98041.84;;;0.10;73.35
45327;BME280;31062;49.678;24.560;2023-02-20T01:01:18;98238.63;;;1.28;73.04
45327;BME280;31062;49.678;24.560;2023-02-20T01:04:04;98185.88;;;0.90;73.07
45327;BME280;31062;49.678;24.560;2023-02-20T01:06:49;98153.50;;;0.81;72.37
45327;BME280;31062;49.678;24.560;2023-02-20T01:09:35;98217.53;;;1.29;72.40
45327;BME280;31062;49.678;24.560;2023-02-20T01:12:20;98214.28;;;1.30;72.41
45327;BME280;31062;49.678;24.560;2023-02-20T01:15:07;98037.69;;;0.04;72.28
45327;BME280;31062;49.678;24.560;2023-02-20T01:17:53;98062.75;;;0.26;72.51
45327;BME280;31062;49.678;24.560;2023-02-20T01:20:38;98169.19;;;0.75;72.27
45327;BME280;31062;49.678;24.560;2023-02-20T01:23:23;98237.31;;;1.35;72.62
45327;BME280;31062;49.678;24.560;2023-02-20T01:26:10;98195.91;;;1.06;72.07
45327;BME280;31062;49.678;24.560;2023-02-20T01:28:56;98059.81;;;-0.06;72.11
45327;BME280;31062;49.678;24.560;2023-02-20T01:31:50;98213.31;;;1.03;72.61
45327;BME280;31062;49.678;24.560;2023-02-20T01:34:36;98064.38;;;-0.19;72.63
45327;BME280;31062;49.678;24.560;2023-02-20T01:37:21;98040.72;;;-0.35;72.93
45327;BME280;31062;49.678;24.560;2023-02-20T01:40:09;98055.72;;;-0.23;72.60
45327;BME280;31062;49.678;24.560;2023-02-20T01:42:58;98275.84;;;1.07;72.95
45327;BME280;31062;49.678;24.560;2023-02-20T01:45:44;98037.06;;;-0.44;72.99
45327;BME280;31062;49.678;24.560;2023-02-20T01:48:30;98205.22;;;0.68;72.67
45327;BME280;31062;49.678;24.560;2023-02-20T01:51:15;98262.56;;;0.92;72.79
45327;BME280;31062;49.678;24.560;2023-02-20T01:54:02;98168.78;;;0.35;73.13
45327;BME280;31062;49.678;24.560;2023-02-20T01:56:50;98288.16;;;0.89;72.96
45327;BME280;31062;49.678;24.560;2023-02-20T01:59:39;98247.47;;;0.86;72.47
45327;BME280;31062;49.678;24.560;2023-02-20T02:02:27;98252.19;;;0.85;72.87
45327;BME280;31062;49.678;24.560;2023-02-20T02:05:17;98068.06;;;-0.52;73.18
45327;BME280;31062;49.678;24.560;2023-02-20T02:08:05;98217.69;;;0.58;72.93
45327;BME280;31062;49.678;24.560;2023-02-20T02:11:16;98255.72;;;0.80;72.83
45327;BME280;31062;49.678;24.560;2023-02-20T02:14:02;98059.19;;;-0.58;72.87
45327;BME280;31062;49.678;24.560;2023-02-20T02:20:34;98059.94;;;-0.58;72.97
45327;BME280;31062;49.678;24.560;2023-02-20T02:26:52;98252.75;;;0.78;72.38
45327;BME280;31062;49.678;24.560;2023-02-20T02:38:56;98281.06;;;0.75;72.75
45327;BME280;31062;49.678;24.560;2023-02-20T02:41:55;98253.78;;;0.75;72.38
45327;BME280;31062;49.678;24.560;2023-02-20T02:48:05;98282.06;;;0.72;71.76
45327;BME280;31062;49.678;24.560;2023-02-20T02:51:00;98249.59;;;0.68;72.12
45327;BME280;31062;49.678;24.560;2023-02-20T02:54:16;98258.97;;;0.73;71.87
45327;BME280;31062;49.678;24.560;2023-02-20T03:03:33;98270.00;;;0.62;72.19
45327;BME280;31062;49.678;24.560;2023-02-20T03:06:25;98275.19;;;0.60;72.75
45327;BME280;31062;49.678;24.560;2023-02-20T03:09:21;98124.75;;;-0.51;72.85
45327;BME280;31062;49.678;24.560;2023-02-20T03:12:10;98129.94;;;-0.53;73.05
45327;BME280;31062;49.678;24.560;2023-02-20T03:18:16;98281.16;;;0.64;73.45
45327;BME280;31062;49.678;24.560;2023-02-20T03:21:10;98225.88;;;0.22;73.95
45327;BME280;31062;49.678;24.560;2023-02-20T03:24:00;98288.53;;;0.69;74.20
45327;BME280;31062;49.678;24.560;2023-02-20T03:26:48;98118.78;;;-0.44;74.23
45327;BME280;31062;49.678;24.560;2023-02-20T03:29:35;98211.63;;;0.05;73.58
45327;BME280;31062;49.678;24.560;2023-02-20T03:32:26;98199.69;;;0.08;74.10
45327;BME280;31062;49.678;24.560;2023-02-20T03:35:33;98247.59;;;0.39;74.01
45327;BME280;31062;49.678;24.560;2023-02-20T03:38:39;98257.91;;;0.52;73.54
45327;BME280;31062;49.678;24.560;2023-02-20T03:41:46;98082.97;;;-0.64;73.77
45327;BME280;31062;49.678;24.560;2023-02-20T03:44:55;98270.16;;;0.75;73.90
45327;BME280;31062;49.678;24.560;2023-02-20T03:47:44;98226.50;;;0.39;73.50
45327;BME280;31062;49.678;24.560;2023-02-20T03:50:33;98285.78;;;0.74;73.38
45327;BME280;31062;49.678;24.560;2023-02-20T03:53:19;98131.03;;;-0.20;73.83
45327;BME280;31062;49.678;24.560;2023-02-20T03:56:34;98079.69;;;-0.52;73.34
45327;BME280;31062;49.678;24.560;2023-02-20T04:02:14;98086.63;;;-0.51;73.00
45327;BME280;31062;49.678;24.560;2023-02-20T04:05:06;98126.56;;;-0.23;72.98
45327;BME280;31062;49.678;24.560;2023-02-20T04:07:59;98239.53;;;0.58;73.02
45327;BME280;31062;49.678;24.560;2023-02-20T04:10:55;98128.03;;;-0.22;72.82
45327;BME280;31062;49.678;24.560;2023-02-20T04:13:43;98084.66;;;-0.50;72.75
45327;BME280;31062;49.678;24.560;2023-02-20T04:16:33;98222.53;;;0.40;73.30
45327;BME280;31062;49.678;24.560;2023-02-20T04:19:20;98234.31;;;0.54;73.26
45327;BME280;31062;49.678;24.560;2023-02-20T04:22:09;98087.09;;;-0.47;73.07
45327;BME280;31062;49.678;24.560;2023-02-20T04:25:00;98081.19;;;-0.51;72.32
45327;BME280;31062;49.678;24.560;2023-02-20T04:27:48;98097.53;;;-0.51;72.24
45327;BME280;31062;49.678;24.560;2023-02-20T04:30:34;98081.19;;;-0.51;72.79
45327;BME280;31062;49.678;24.560;2023-02-20T04:33:22;98081.19;;;-0.51;72.67
45327;BME280;31062;49.678;24.560;2023-02-20T04:36:11;98255.41;;;0.54;72.74
45327;BME280;31062;49.678;24.560;2023-02-20T04:38:58;98226.09;;;0.60;72.84
45327;BME280;31062;49.678;24.560;2023-02-20T04:41:47;98224.91;;;0.55;71.83
45327;BME280;31062;49.678;24.560;2023-02-20T04:44:33;98087.31;;;-0.39;72.00
45327;BME280;31062;49.678;24.560;2023-02-20T04:47:21;98270.06;;;0.86;72.27
45327;BME280;31062;49.678;24.560;2023-02-20T04:50:07;98258.19;;;0.78;71.82
45327;BME280;31062;49.678;24.560;2023-02-20T04:52:52;98090.53;;;-0.41;71.46
45327;BME280;31062;49.678;24.560;2023-02-20T04:55:38;98176.81;;;0.22;72.15
45327;BME280;31062;49.678;24.560;2023-02-20T04:58:28;98187.13;;;-0.01;71.78
45327;BME280;31062;49.678;24.560;2023-02-20T05:01:23;98072.69;;;-0.42;71.61
45327;BME280;31062;49.678;24.560;2023-02-20T05:04:08;98229.06;;;0.62;71.49
45327;BME280;31062;49.678;24.560;2023-02-20T05:06:55;98080.41;;;-0.46;72.11
45327;BME280;31062;49.678;24.560;2023-02-20T05:09:42;98009.13;;;-0.85;71.34
45327;BME280;31062;49.678;24.560;2023-02-20T05:12:28;98287.91;;;0.87;71.83
45327;BME280;31062;49.678;24.560;2023-02-20T05:15:14;98226.56;;;0.64;71.52
45327;BME280;31062;49.678;24.560;2023-02-20T05:18:00;98193.00;;;0.45;71.69
45327;BME280;31062;49.678;24.560;2023-02-20T05:20:45;98272.00;;;0.91;72.29
45327;BME280;31062;49.678;24.560;2023-02-20T05:23:49;98219.53;;;0.74;71.71
45327;BME280;31062;49.678;24.560;2023-02-20T05:26:35;98060.03;;;-0.33;71.51
45327;BME280;31062;49.678;24.560;2023-02-20T05:29:21;98100.19;;;-0.04;71.89
45327;BME280;31062;49.678;24.560;2023-02-20T05:32:06;98242.09;;;1.04;71.16
45327;BME280;31062;49.678;24.560;2023-02-20T05:34:52;98085.84;;;-0.10;71.49
45327;BME280;31062;49.678;24.560;2023-02-20T05:37:38;98157.09;;;0.40;71.15
45327;BME280;31062;49.678;24.560;2023-02-20T05:40:24;98250.53;;;1.06;71.58
45327;BME280;31062;49.678;24.560;2023-02-20T05:43:09;98209.38;;;0.74;71.57
45327;BME280;31062;49.678;24.560;2023-02-20T05:45:54;98068.34;;;-0.20;71.72
45327;BME280;31062;49.678;24.560;2023-02-20T05:48:40;98208.06;;;0.81;71.50
45327;BME280;31062;49.678;24.560;2023-02-20T05:51:27;97967.53;;;-0.80;70.87
45327;BME280;31062;49.678;24.560;2023-02-20T05:54:13;98220.88;;;0.92;71.00
45327;BME280;31062;49.678;24.560;2023-02-20T05:57:02;98254.41;;;1.16;71.48
45327;BME280;31062;49.678;24.560;2023-02-20T05:59:49;98254.41;;;1.16;70.87
45327;BME280;31062;49.678;24.560;2023-02-20T06:02:35;98260.91;;;1.08;70.04
45327;BME280;31062;49.678;24.560;2023-02-20T06:05:20;98218.13;;;0.92;70.73
45327;BME280;31062;49.678;24.560;2023-02-20T06:08:06;98258.81;;;1.19;70.30
45327;BME280;31062;49.678;24.560;2023-02-20T06:10:51;98247.22;;;1.13;70.23
45327;BME280;31062;49.678;24.560;2023-02-20T06:13:41;98254.25;;;1.03;69.39
45327;BME280;31062;49.678;24.560;2023-02-20T06:16:28;98073.97;;;-0.07;69.00
45327;BME280;31062;49.678;24.560;2023-02-20T06:19:22;97763.19;;;-2.24;69.54
45327;BME280;31062;49.678;24.560;2023-02-20T06:22:08;98220.38;;;0.93;69.14
45327;BME280;31062;49.678;24.560;2023-02-20T06:24:53;98254.03;;;1.26;69.28
45327;BME280;31062;49.678;24.560;2023-02-20T06:27:39;98174.00;;;0.63;68.85
45327;BME280;31062;49.678;24.560;2023-02-20T06:30:25;98165.25;;;0.70;69.38
45327;BME280;31062;49.678;24.560;2023-02-20T06:33:11;98098.66;;;0.30;68.42
45327;BME280;31062;49.678;24.560;2023-02-20T06:35:56;98187.38;;;0.91;69.17
45327;BME280;31062;49.678;24.560;2023-02-20T06:38:42;98269.97;;;1.46;68.04
45327;BME280;31062;49.678;24.560;2023-02-20T06:41:27;98075.19;;;0.22;67.83
45327;BME280;31062;49.678;24.560;2023-02-20T06:44:13;98251.66;;;1.41;67.96
45327;BME280;31062;49.678;24.560;2023-02-20T06:46:59;98100.28;;;0.45;67.32
45327;BME280;31062;49.678;24.560;2023-02-20T06:49:44;98245.97;;;1.14;67.68
45327;BME280;31062;49.678;24.560;2023-02-20T06:52:30;98287.16;;;1.65;66.94
45327;BME280;31062;49.678;24.560;2023-02-20T06:55:15;98094.19;;;0.33;66.79
45327;BME280;31062;49.678;24.560;2023-02-20T06:58:01;98202.69;;;1.00;67.67
45327;BME280;31062;49.678;24.560;2023-02-20T07:00:46;98337.09;;;1.66;67.34
45327;BME280;31062;49.678;24.560;2023-02-20T07:03:32;98319.16;;;1.70;67.27
45327;BME280;31062;49.678;24.560;2023-02-20T07:06:17;98234.03;;;1.17;67.75
45327;BME280;31062;49.678;24.560;2023-02-20T07:09:03;98327.34;;;1.70;67.68
45327;BME280;31062;49.678;24.560;2023-02-20T07:11:51;98281.22;;;1.42;66.52
45327;BME280;31062;49.678;24.560;2023-02-20T07:14:36;98266.81;;;1.42;67.68
45327;BME280;31062;49.678;24.560;2023-02-20T07:17:23;98246.31;;;1.30;67.30
45327;BME280;31062;49.678;24.560;2023-02-20T07:20:09;98286.25;;;1.57;67.97
45327;BME280;31062;49.678;24.560;2023-02-20T07:22:55;98322.34;;;1.74;66.91
45327;BME280;31062;49.678;24.560;2023-02-20T07:25:41;98229.47;;;1.26;68.16
45327;BME280;31062;49.678;24.560;2023-02-20T07:28:27;98268.84;;;1.60;67.44
45327;BME280;31062;49.678;24.560;2023-02-20T07:31:12;98264.97;;;1.50;67.48
45327;BME280;31062;49.678;24.560;2023-02-20T07:33:58;98266.69;;;1.53;68.40
45327;BME280;31062;49.678;24.560;2023-02-20T07:41:52;98272.94;;;1.91;67.27
45327;BME280;31062;49.678;24.560;2023-02-20T07:44:57;98269.63;;;2.17;66.15
45327;BME280;31062;49.678;24.560;2023-02-20T07:47:42;98190.56;;;1.81;65.70
45327;BME280;31062;49.678;24.560;2023-02-20T07:54:18;98137.81;;;1.86;63.44
45327;BME280;31062;49.678;24.560;2023-02-20T07:57:04;98324.78;;;3.22;63.17
45327;BME280;31062;49.678;24.560;2023-02-20T07:59:49;98171.28;;;2.43;62.81
45327;BME280;31062;49.678;24.560;2023-02-20T08:02:35;98371.34;;;3.54;61.65
45327;BME280;31062;49.678;24.560;2023-02-20T08:05:20;98316.84;;;3.50;60.02
45327;BME280;31062;49.678;24.560;2023-02-20T08:08:06;98327.78;;;3.50;60.75
45327;BME280;31062;49.678;24.560;2023-02-20T08:10:52;98330.63;;;3.45;60.33
45327;BME280;31062;49.678;24.560;2023-02-20T08:18:34;98247.44;;;3.03;59.51
45327;BME280;31062;49.678;24.560;2023-02-20T08:21:21;98152.53;;;2.47;60.78
45327;BME280;31062;49.678;24.560;2023-02-20T08:24:07;98136.53;;;2.51;59.02
45327;BME280;31062;49.678;24.560;2023-02-20T08:26:53;98332.88;;;3.86;57.02
45327;BME280;31062;49.678;24.560;2023-02-20T08:29:41;98290.78;;;3.96;58.76
45327;BME280;31062;49.678;24.560;2023-02-20T08:32:26;98297.41;;;4.01;58.96
45327;BME280;31062;49.678;24.560;2023-02-20T08:35:12;98306.03;;;4.18;56.73
45327;BME280;31062;49.678;24.560;2023-02-20T08:37:58;98261.56;;;3.99;56.53
45327;BME280;31062;49.678;24.560;2023-02-20T08:40:46;98246.88;;;3.96;57.21
45327;BME280;31062;49.678;24.560;2023-02-20T08:43:32;98311.91;;;4.35;57.15
45327;BME280;31062;49.678;24.560;2023-02-20T08:46:19;98319.50;;;4.42;56.41
45327;BME280;31062;49.678;24.560;2023-02-20T08:49:04;98291.38;;;4.49;56.59
45327;BME280;31062;49.678;24.560;2023-02-20T08:51:53;98293.69;;;4.59;56.46
45327;BME280;31062;49.678;24.560;2023-02-20T08:54:43;98286.56;;;4.42;56.33
45327;BME280;31062;49.678;24.560;2023-02-20T08:57:29;98088.63;;;3.37;56.77
45327;BME280;31062;49.678;24.560;2023-02-20T09:00:16;98095.88;;;3.47;55.90
45327;BME280;31062;49.678;24.560;2023-02-20T09:03:04;98273.53;;;4.77;55.32
45327;BME280;31062;49.678;24.560;2023-02-20T09:05:52;98270.06;;;4.76;55.55
45327;BME280;31062;49.678;24.560;2023-02-20T09:08:37;98269.34;;;4.76;55.96
45327;BME280;31062;49.678;24.560;2023-02-20T09:11:23;98284.47;;;4.90;53.04
45327;BME280;31062;49.678;24.560;2023-02-20T09:14:08;98268.84;;;4.85;54.29
45327;BME280;31062;49.678;24.560;2023-02-20T09:16:54;98189.88;;;4.36;54.95
45327;BME280;31062;49.678;24.560;2023-02-20T09:19:39;98222.03;;;4.70;53.97
45327;BME280;31062;49.678;24.560;2023-02-20T09:22:26;98196.72;;;4.64;53.48
45327;BME280;31062;49.678;24.560;2023-02-20T09:25:12;98239.50;;;5.01;52.40
45327;BME280;31062;49.678;24.560;2023-02-20T09:27:59;98100.13;;;4.03;53.25
45327;BME280;31062;49.678;24.560;2023-02-20T09:30:44;98240.66;;;5.05;53.03
45327;BME280;31062;49.678;24.560;2023-02-20T09:33:31;98272.53;;;5.08;53.83
45327;BME280;31062;49.678;24.560;2023-02-20T09:36:17;98047.84;;;3.88;53.15
45327;BME280;31062;49.678;24.560;2023-02-20T09:39:03;98243.31;;;5.18;52.85
45327;BME280;31062;49.678;24.560;2023-02-20T09:45:12;98087.69;;;4.23;51.90
45327;BME280;31062;49.678;24.560;2023-02-20T09:48:28;98223.38;;;5.25;51.19
45327;BME280;31062;49.678;24.560;2023-02-20T09:51:18;98038.91;;;4.08;51.45
45327;BME280;31062;49.678;24.560;2023-02-20T09:54:39;98208.06;;;5.38;51.91
45327;BME280;31062;49.678;24.560;2023-02-20T09:57:30;98226.41;;;5.43;50.97
45327;BME280;31062;49.678;24.560;2023-02-20T10:00:35;98181.44;;;5.32;52.03
45327;BME280;31062;49.678;24.560;2023-02-20T10:03:43;98196.94;;;5.51;52.22
45327;BME280;31062;49.678;24.560;2023-02-20T10:06:34;98063.78;;;4.59;52.65
45327;BME280;31062;49.678;24.560;2023-02-20T10:09:20;98170.19;;;5.51;52.19
45327;BME280;31062;49.678;24.560;2023-02-20T10:12:18;98181.25;;;5.66;52.66
45327;BME280;31062;49.678;24.560;2023-02-20T10:15:18;98167.69;;;5.68;52.39
45327;BME280;31062;49.678;24.560;2023-02-20T10:28:02;97967.03;;;4.38;51.60
45327;BME280;31062;49.678;24.560;2023-02-20T10:34:04;98148.97;;;5.59;52.61
45327;BME280;31062;49.678;24.560;2023-02-20T10:36:55;98147.66;;;5.60;52.67
45327;BME280;31062;49.678;24.560;2023-02-20T10:39:51;98124.75;;;5.58;52.17
45327;BME280;31062;49.678;24.560;2023-02-20T10:42:50;98120.75;;;5.59;52.05
45327;BME280;31062;49.678;24.560;2023-02-20T10:48:58;98012.41;;;5.03;50.83
45327;BME280;31062;49.678;24.560;2023-02-20T10:51:49;98104.09;;;5.80;51.33
45327;BME280;31062;49.678;24.560;2023-02-20T10:54:45;98060.97;;;5.67;50.46
45327;BME280;31062;49.678;24.560;2023-02-20T10:57:39;97954.84;;;4.90;50.73
45327;BME280;31062;49.678;24.560;2023-02-20T11:00:32;98076.41;;;5.85;49.71
45327;BME280;31062;49.678;24.560;2023-02-20T11:06:22;98085.59;;;5.80;50.45
45327;BME280;31062;49.678;24.560;2023-02-20T11:09:10;98091.13;;;5.88;50.97
45327;BME280;31062;49.678;24.560;2023-02-20T11:11:57;97904.97;;;4.71;49.90
45327;BME280;31062;49.678;24.560;2023-02-20T11:14:48;98077.56;;;5.97;49.02
45327;BME280;31062;49.678;24.560;2023-02-20T11:17:38;98089.28;;;5.90;49.90
45327;BME280;31062;49.678;24.560;2023-02-20T11:32:16;98022.50;;;5.82;47.13
45327;BME280;31062;49.678;24.560;2023-02-20T11:41:07;98033.00;;;5.91;48.01
45327;BME280;31062;49.678;24.560;2023-02-20T11:50:29;97974.84;;;6.02;48.41
45327;BME280;31062;49.678;24.560;2023-02-20T11:53:29;97919.06;;;5.79;49.15
45327;BME280;31062;49.678;24.560;2023-02-20T11:56:17;97956.34;;;5.95;48.70
45327;BME280;31062;49.678;24.560;2023-02-20T12:02:21;97816.41;;;5.08;48.56
45327;BME280;31062;49.678;24.560;2023-02-20T12:05:11;97923.88;;;5.94;49.18
45327;BME280;31062;49.678;24.560;2023-02-20T12:07:58;97946.22;;;6.13;49.51
45327;BME280;31062;49.678;24.560;2023-02-20T12:10:47;97932.63;;;6.23;48.42
45327;BME280;31062;49.678;24.560;2023-02-20T12:13:43;97956.47;;;6.28;49.83
45327;BME280;31062;49.678;24.560;2023-02-20T12:20:15;97909.13;;;6.29;49.39
45327;BME280;31062;49.678;24.560;2023-02-20T12:26:21;97884.16;;;6.35;49.30
45327;BME280;31062;49.678;24.560;2023-02-20T12:32:43;97858.44;;;6.40;49.44
45327;BME280;31062;49.678;24.560;2023-02-20T12:35:34;97858.25;;;6.38;47.31
45327;BME280;31062;49.678;24.560;2023-02-20T12:47:32;97816.19;;;6.45;46.82
45327;BME280;31062;49.678;24.560;2023-02-20T12:50:24;97842.44;;;6.46;46.07
45327;BME280;31062;49.678;24.560;2023-02-20T12:56:40;97820.75;;;6.50;45.81
45327;BME280;31062;49.678;24.560;2023-02-20T12:59:59;97796.69;;;6.50;46.95
45327;BME280;31062;49.678;24.560;2023-02-20T13:02:49;97728.59;;;6.19;46.48
45327;BME280;31062;49.678;24.560;2023-02-20T13:05:41;97604.97;;;5.33;46.09
45327;BME280;31062;49.678;24.560;2023-02-20T13:08:33;97768.06;;;6.53;46.66
45327;BME280;31062;49.678;24.560;2023-02-20T13:11:23;97736.59;;;6.32;46.38
45327;BME280;31062;49.678;24.560;2023-02-20T13:17:32;97762.88;;;6.57;46.85
45327;BME280;31062;49.678;24.560;2023-02-20T13:20:24;97768.78;;;6.54;45.80
45327;BME280;31062;49.678;24.560;2023-02-20T13:26:00;97715.72;;;6.21;45.70
45327;BME280;31062;49.678;24.560;2023-02-20T13:28:46;97749.81;;;6.26;46.25
45327;BME280;31062;49.678;24.560;2023-02-20T13:43:18;97754.69;;;6.10;49.45
45327;BME280;31062;49.678;24.560;2023-02-20T13:46:09;97773.81;;;6.00;50.33
45327;BME280;31062;49.678;24.560;2023-02-20T13:48:57;97719.81;;;5.65;51.16
45327;BME280;31062;49.678;24.560;2023-02-20T13:51:43;97769.44;;;5.82;51.63
45327;BME280;31062;49.678;24.560;2023-02-20T13:54:29;97784.84;;;5.78;51.66
45327;BME280;31062;49.678;24.560;2023-02-20T13:57:17;97753.34;;;5.71;52.22
45327;BME280;31062;49.678;24.560;2023-02-20T14:09:07;97715.78;;;5.58;55.18
45327;BME280;31062;49.678;24.560;2023-02-20T14:12:05;97700.97;;;5.54;55.66
45327;BME280;31062;49.678;24.560;2023-02-20T14:14:52;97695.81;;;5.43;57.01
45327;BME280;31062;49.678;24.560;2023-02-20T14:17:41;97676.59;;;5.43;57.36
45327;BME280;31062;49.678;24.560;2023-02-20T14:20:34;97594.47;;;4.84;57.33
45327;BME280;31062;49.678;24.560;2023-02-20T14:23:23;97683.03;;;5.38;58.66
45327;BME280;31062;49.678;24.560;2023-02-20T14:26:22;97475.84;;;4.15;59.15
45327;BME280;31062;49.678;24.560;2023-02-20T14:29:20;97482.97;;;4.18;58.97
45327;BME280;31062;49.678;24.560;2023-02-20T14:32:12;97626.81;;;5.23;59.54
45327;BME280;31062;49.678;24.560;2023-02-20T14:35:11;97657.75;;;5.31;60.02
45327;BME280;31062;49.678;24.560;2023-02-20T14:41:21;97448.06;;;4.11;60.00
45327;BME280;31062;49.678;24.560;2023-02-20T14:44:14;97628.03;;;5.38;60.18
45327;BME280;31062;49.678;24.560;2023-02-20T14:47:11;97622.53;;;5.38;59.68
45327;BME280;31062;49.678;24.560;2023-02-20T14:50:14;97581.97;;;5.13;60.11
45327;BME280;31062;49.678;24.560;2023-02-20T14:53:08;97604.25;;;5.32;59.92
45327;BME280;31062;49.678;24.560;2023-02-20T14:55:56;97604.44;;;5.34;60.45
45327;BME280;31062;49.678;24.560;2023-02-20T14:58:43;97564.38;;;5.16;61.18
45327;BME280;31062;49.678;24.560;2023-02-20T15:01:34;97601.31;;;5.30;61.48
45327;BME280;31062;49.678;24.560;2023-02-20T15:04:24;97548.94;;;5.28;62.18
45327;BME280;31062;49.678;24.560;2023-02-20T15:07:11;97554.97;;;5.27;62.28
45327;BME280;31062;49.678;24.560;2023-02-20T15:09:59;97525.50;;;5.27;61.90
45327;BME280;31062;49.678;24.560;2023-02-20T15:12:46;97542.72;;;5.28;62.19
45327;BME280;31062;49.678;24.560;2023-02-20T15:15:34;97506.56;;;4.99;62.37
45327;BME280;31062;49.678;24.560;2023-02-20T15:21:32;97540.31;;;5.24;62.69
45327;BME280;31062;49.678;24.560;2023-02-20T15:24:37;97491.81;;;5.19;62.11
45327;BME280;31062;49.678;24.560;2023-02-20T15:27:30;97434.09;;;4.87;62.60
45327;BME280;31062;49.678;24.560;2023-02-20T15:30:17;97454.28;;;5.14;61.88
45327;BME280;31062;49.678;24.560;2023-02-20T15:33:07;97461.44;;;5.17;62.24
45327;BME280;31062;49.678;24.560;2023-02-20T15:35:54;97462.25;;;4.95;62.24
45327;BME280;31062;49.678;24.560;2023-02-20T15:38:40;97416.16;;;4.86;62.26
45327;BME280;31062;49.678;24.560;2023-02-20T15:41:26;97501.38;;;5.18;62.61
45327;BME280;31062;49.678;24.560;2023-02-20T15:44:11;97467.69;;;5.10;62.60
45327;BME280;31062;49.678;24.560;2023-02-20T15:46:59;97480.38;;;5.30;62.59
45327;BME280;31062;49.678;24.560;2023-02-20T15:49:48;97515.41;;;5.30;62.91
45327;BME280;31062;49.678;24.560;2023-02-20T15:52:35;97318.72;;;4.22;62.93
45327;BME280;31062;49.678;24.560;2023-02-20T15:55:21;97488.81;;;5.32;63.02
45327;BME280;31062;49.678;24.560;2023-02-20T15:58:26;97426.81;;;5.14;63.22
45327;BME280;31062;49.678;24.560;2023-02-20T16:01:18;97454.03;;;5.27;64.20
45327;BME280;31062;49.678;24.560;2023-02-20T16:04:06;97248.22;;;4.00;64.10
45327;BME280;31062;49.678;24.560;2023-02-20T16:06:55;97396.59;;;5.14;64.49
45327;BME280;31062;49.678;24.560;2023-02-20T16:09:42;97405.34;;;5.20;64.43
45327;BME280;31062;49.678;24.560;2023-02-20T16:12:31;97357.09;;;5.02;64.21
45327;BME280;31062;49.678;24.560;2023-02-20T16:15:19;97384.50;;;5.17;64.29
45327;BME280;31062;49.678;24.560;2023-02-20T16:18:12;97363.97;;;5.18;64.00
45327;BME280;31062;49.678;24.560;2023-02-20T16:20:57;97374.25;;;5.18;63.84
45327;BME280;31062;49.678;24.560;2023-02-20T16:23:44;97332.28;;;4.92;64.13
45327;BME280;31062;49.678;24.560;2023-02-20T16:26:33;97330.19;;;5.01;63.81
45327;BME280;31062;49.678;24.560;2023-02-20T16:29:27;97371.19;;;5.06;63.91
45327;BME280;31062;49.678;24.560;2023-02-20T16:32:16;97354.78;;;5.23;63.78
45327;BME280;31062;49.678;24.560;2023-02-20T16:35:03;97355.09;;;5.27;63.85
45327;BME280;31062;49.678;24.560;2023-02-20T16:37:49;97178.16;;;4.06;63.64
45327;BME280;31062;49.678;24.560;2023-02-20T16:40:36;97345.56;;;5.28;63.76
45327;BME280;31062;49.678;24.560;2023-02-20T16:43:22;97340.41;;;5.32;63.39
45327;BME280;31062;49.678;24.560;2023-02-20T16:46:08;97312.75;;;5.30;63.52
45327;BME280;31062;49.678;24.560;2023-02-20T16:48:54;97315.84;;;5.34;63.39
45327;BME280;31062;49.678;24.560;2023-02-20T16:51:41;97291.41;;;5.21;63.20
45327;BME280;31062;49.678;24.560;2023-02-20T16:54:35;97156.88;;;4.47;63.04
45327;BME280;31062;49.678;24.560;2023-02-20T16:57:22;97248.28;;;5.07;63.07
45327;BME280;31062;49.678;24.560;2023-02-20T17:00:08;97298.41;;;5.40;63.07
45327;BME280;31062;49.678;24.560;2023-02-20T17:02:57;97231.13;;;5.23;62.66
45327;BME280;31062;49.678;24.560;2023-02-20T17:05:43;97282.13;;;5.34;62.97
45327;BME280;31062;49.678;24.560;2023-02-20T17:08:28;97289.81;;;5.36;62.94
45327;BME280;31062;49.678;24.560;2023-02-20T17:11:14;97268.47;;;5.44;62.49
45327;BME280;31062;49.678;24.560;2023-02-20T17:14:00;97254.41;;;5.40;62.46
45327;BME280;31062;49.678;24.560;2023-02-20T17:16:48;97259.75;;;5.38;62.54
45327;BME280;31062;49.678;24.560;2023-02-20T17:19:46;97266.22;;;5.50;62.36
45327;BME280;31062;49.678;24.560;2023-02-20T17:22:32;97271.25;;;5.61;62.54
45327;BME280;31062;49.678;24.560;2023-02-20T17:25:23;97269.09;;;5.59;62.46
45327;BME280;31062;49.678;24.560;2023-02-20T17:28:10;97269.41;;;5.63;62.27